createdAt,value
2023-04-29T00:02:06.115Z,12.18
2023-04-29T00:04:34.984Z,21.80
2023-04-29T00:07:03.420Z,14.23
2023-04-29T00:09:31.938Z,13.60
2023-04-29T00:12:00.184Z,19.35
2023-04-29T00:14:30.084Z,11.60
2023-04-29T00:16:58.501Z,11.10
2023-04-29T00:19:27.071Z,11.18
2023-04-29T00:21:55.716Z,18.35
2023-04-29T00:24:24.282Z,16.48
2023-04-29T00:26:52.775Z,12.80
2023-04-29T00:29:21.457Z,14.10
2023-04-29T00:31:51.252Z,15.85
2023-04-29T00:34:20.101Z,19.42
2023-04-29T00:36:48.450Z,12.10
2023-04-29T00:39:17.108Z,13.60
2023-04-29T00:41:45.739Z,16.88
2023-04-29T00:44:17.317Z,12.27
2023-04-29T00:46:45.787Z,13.07
2023-04-29T00:49:16.288Z,13.77
2023-04-29T00:51:45.330Z,11.48
2023-04-29T00:54:14.288Z,10.13
2023-04-29T00:56:43.825Z,11.73
2023-04-29T00:59:12.788Z,13.50
2023-04-29T01:01:41.155Z,13.60
2023-04-29T01:04:09.941Z,16.58
2023-04-29T01:06:52.211Z,10.57
2023-04-29T01:09:33.666Z,8.63
2023-04-29T01:12:09.539Z,16.60
2023-04-29T01:14:40.486Z,15.00
2023-04-29T01:17:16.795Z,10.70
2023-04-29T01:19:49.121Z,15.85
2023-04-29T01:22:20.174Z,9.93
2023-04-29T01:24:50.550Z,11.80
2023-04-29T01:27:29.476Z,18.38
2023-04-29T01:30:05.089Z,15.95
2023-04-29T01:32:44.631Z,10.73
2023-04-29T01:35:22.288Z,11.30
2023-04-29T01:37:57.952Z,12.68
2023-04-29T01:40:38.954Z,12.32
2023-04-29T01:43:12.320Z,11.25
2023-04-29T01:45:42.235Z,10.88
2023-04-29T01:48:11.453Z,9.65
2023-04-29T01:50:40.074Z,9.02
2023-04-29T01:53:08.422Z,13.82
2023-04-29T01:55:38.508Z,8.63
2023-04-29T01:58:06.792Z,15.77
2023-04-29T02:00:35.767Z,14.50
2023-04-29T02:03:04.230Z,17.52
2023-04-29T02:05:34.739Z,9.75
2023-04-29T02:08:03.280Z,11.77
2023-04-29T02:10:31.812Z,20.08
2023-04-29T02:13:01.485Z,18.25
2023-04-29T02:15:30.452Z,15.18
2023-04-29T02:17:58.710Z,31.17
2023-04-29T02:20:27.406Z,11.60
2023-04-29T02:22:55.624Z,14.90
2023-04-29T02:25:24.083Z,13.57
2023-04-29T02:27:52.468Z,19.30
2023-04-29T02:30:22.310Z,10.30
2023-04-29T02:32:51.376Z,10.05
2023-04-29T02:35:19.978Z,11.85
2023-04-29T02:37:48.228Z,19.52
2023-04-29T02:40:16.838Z,18.27
2023-04-29T02:42:45.030Z,11.80
2023-04-29T02:45:13.637Z,16.70
2023-04-29T02:47:43.834Z,11.88
2023-04-29T02:50:12.332Z,14.50
2023-04-29T02:52:41.899Z,12.10
2023-04-29T02:55:10.660Z,12.35
2023-04-29T02:57:39.103Z,15.50
2023-04-29T03:00:09.036Z,16.55
2023-04-29T03:02:37.614Z,12.80
2023-04-29T03:05:08.495Z,12.90
2023-04-29T03:07:38.283Z,18.48
2023-04-29T03:10:07.998Z,18.95
2023-04-29T03:12:36.357Z,21.52
2023-04-29T03:15:05.629Z,15.50
2023-04-29T03:17:33.976Z,14.68
2023-04-29T03:20:02.504Z,17.15
2023-04-29T03:22:32.036Z,16.83
2023-04-29T03:25:00.634Z,16.58
2023-04-29T03:27:29.069Z,15.63
2023-04-29T03:29:57.610Z,11.82
2023-04-29T03:32:26.056Z,13.77
2023-04-29T03:34:55.195Z,15.30
2023-04-29T03:37:23.478Z,17.83
2023-04-29T03:39:53.689Z,19.35
2023-04-29T03:42:22.267Z,13.75
2023-04-29T03:44:51.023Z,16.17
2023-04-29T03:47:19.194Z,18.20
2023-04-29T03:49:47.809Z,12.90
2023-04-29T03:52:16.481Z,11.68
2023-04-29T03:54:45.217Z,15.00
2023-04-29T03:57:14.912Z,11.05
2023-04-29T03:59:43.521Z,14.10
2023-04-29T04:02:11.768Z,11.68
2023-04-29T04:04:41.671Z,9.80
2023-04-29T04:07:10.046Z,12.13
2023-04-29T04:09:38.653Z,15.45
2023-04-29T04:12:07.840Z,12.00
2023-04-29T04:14:37.656Z,11.75
2023-04-29T04:17:05.976Z,10.95
2023-04-29T04:19:34.870Z,14.65
2023-04-29T04:22:05.071Z,20.75
2023-04-29T04:24:33.708Z,16.13
2023-04-29T04:27:02.253Z,15.32
2023-04-29T04:29:30.889Z,9.90
2023-04-29T04:32:00.773Z,16.70
2023-04-29T04:34:29.378Z,12.63
2023-04-29T04:36:57.779Z,10.63
2023-04-29T04:39:26.392Z,10.60
2023-04-29T04:41:54.678Z,18.17
2023-04-29T04:44:23.171Z,9.02
2023-04-29T04:46:52.451Z,12.02
2023-04-29T04:49:22.385Z,13.85
2023-04-29T04:51:50.624Z,18.10
2023-04-29T04:54:19.071Z,14.38
2023-04-29T04:56:48.480Z,13.77
2023-04-29T04:59:17.121Z,21.63
2023-04-29T05:01:45.805Z,18.15
2023-04-29T05:04:15.675Z,13.05
2023-04-29T05:06:46.463Z,15.93
2023-04-29T05:09:15.076Z,19.50
2023-04-29T05:11:43.336Z,13.50
2023-04-29T05:14:11.801Z,11.77
2023-04-29T05:16:40.167Z,22.38
2023-04-29T05:19:09.713Z,17.95
2023-04-29T05:21:38.183Z,13.10
2023-04-29T05:24:08.570Z,20.30
2023-04-29T05:26:36.930Z,11.70
2023-04-29T05:29:05.538Z,18.00
2023-04-29T05:31:34.018Z,14.90
2023-04-29T05:34:02.500Z,14.32
2023-04-29T05:36:30.790Z,19.35
2023-04-29T05:38:59.458Z,20.45
2023-04-29T05:41:29.136Z,12.75
2023-04-29T05:43:57.735Z,14.02
2023-04-29T05:46:26.650Z,21.05
2023-04-29T05:48:55.380Z,14.07
2023-04-29T05:51:23.838Z,12.90
2023-04-29T05:53:52.370Z,18.58
2023-04-29T05:56:20.805Z,22.90
2023-04-29T05:58:50.846Z,11.60
2023-04-29T06:01:19.092Z,11.93
2023-04-29T06:03:47.824Z,14.50
2023-04-29T06:06:16.643Z,17.38
2023-04-29T06:08:45.243Z,18.52
2023-04-29T06:11:14.745Z,24.05
2023-04-29T06:13:43.638Z,16.60
2023-04-29T06:16:13.575Z,16.27
2023-04-29T06:18:42.175Z,16.05
2023-04-29T06:21:10.671Z,17.52
2023-04-29T06:23:39.202Z,14.70
2023-04-29T06:26:07.934Z,17.20
2023-04-29T06:28:36.478Z,19.08
2023-04-29T06:31:04.996Z,17.52
2023-04-29T06:33:34.981Z,15.85
2023-04-29T06:36:04.769Z,14.23
2023-04-29T06:38:33.477Z,18.60
2023-04-29T06:41:01.733Z,21.92
2023-04-29T06:43:30.217Z,13.13
2023-04-29T06:45:58.570Z,18.60
2023-04-29T06:48:27.801Z,18.15
2023-04-29T06:51:00.572Z,13.00
2023-04-29T06:53:29.170Z,20.30
2023-04-29T06:55:57.500Z,13.60
2023-04-29T06:58:26.014Z,11.98
2023-04-29T07:00:54.358Z,18.48
2023-04-29T07:03:23.079Z,12.88
2023-04-29T07:05:51.464Z,15.48
2023-04-29T07:08:21.380Z,21.70
2023-04-29T07:10:56.598Z,16.77
2023-04-29T07:13:25.389Z,14.23
2023-04-29T07:15:53.736Z,17.48
2023-04-29T07:18:22.436Z,12.57
2023-04-29T07:20:52.818Z,21.38
2023-04-29T07:23:22.768Z,22.98
2023-04-29T07:25:52.327Z,10.63
2023-04-29T07:28:21.648Z,13.10
2023-04-29T07:30:50.046Z,9.63
2023-04-29T07:33:18.778Z,9.98
2023-04-29T07:35:49.308Z,10.57
2023-04-29T07:38:18.096Z,10.23
2023-04-29T07:40:47.834Z,9.68
2023-04-29T07:43:16.602Z,10.13
2023-04-29T07:45:45.112Z,11.40
2023-04-29T07:48:13.770Z,12.20
2023-04-29T07:50:42.641Z,10.40
2023-04-29T07:53:12.209Z,12.93
2023-04-29T07:55:40.726Z,8.57
2023-04-29T07:58:10.649Z,12.02
2023-04-29T08:00:38.954Z,13.65
2023-04-29T08:03:09.249Z,10.75
2023-04-29T08:05:37.962Z,6.55
2023-04-29T08:08:06.989Z,9.10
2023-04-29T08:10:41.002Z,12.88
2023-04-29T08:13:11.542Z,16.90
2023-04-29T08:15:40.035Z,10.45
2023-04-29T08:18:09.038Z,9.95
2023-04-29T08:20:37.541Z,9.13
2023-04-29T08:23:06.340Z,12.35
2023-04-29T08:25:34.736Z,12.38
2023-04-29T08:28:03.327Z,9.63
2023-04-29T08:30:33.658Z,9.32
2023-04-29T08:33:02.345Z,11.15
2023-04-29T08:35:31.190Z,9.73
2023-04-29T08:37:59.827Z,16.63
2023-04-29T08:40:28.291Z,10.95
2023-04-29T08:42:57.063Z,10.45
2023-04-29T08:45:26.396Z,10.55
2023-04-29T08:47:57.933Z,11.90
2023-04-29T08:50:26.375Z,10.23
2023-04-29T08:52:56.270Z,8.02
2023-04-29T08:55:24.754Z,11.30
2023-04-29T08:57:57.754Z,9.63
2023-04-29T09:00:26.688Z,10.40
2023-04-29T09:02:58.840Z,10.50
2023-04-29T09:05:27.941Z,16.65
2023-04-29T09:07:59.715Z,12.32
2023-04-29T09:10:28.481Z,18.90
2023-04-29T09:12:58.544Z,10.90
2023-04-29T09:15:26.850Z,17.70
2023-04-29T09:17:57.406Z,10.40
2023-04-29T09:20:30.474Z,15.63
2023-04-29T09:23:01.495Z,10.70
2023-04-29T09:25:30.197Z,13.32
2023-04-29T09:27:58.983Z,12.55
2023-04-29T09:30:27.467Z,12.63
2023-04-29T09:33:08.819Z,16.25
2023-04-29T09:35:37.943Z,9.40
2023-04-29T09:38:14.167Z,11.07
2023-04-29T09:40:58.349Z,11.40
2023-04-29T09:43:27.874Z,10.65
2023-04-29T09:45:56.225Z,12.82
2023-04-29T09:48:33.739Z,19.55
2023-04-29T09:51:04.135Z,15.32
2023-04-29T09:53:33.430Z,26.73
2023-04-29T09:56:03.718Z,20.35
2023-04-29T09:58:37.289Z,15.57
2023-04-29T10:01:06.760Z,17.50
2023-04-29T10:03:38.996Z,15.82
2023-04-29T10:06:09.130Z,12.68
2023-04-29T10:08:37.787Z,28.60
2023-04-29T10:11:06.262Z,26.73
2023-04-29T10:13:38.573Z,14.07
2023-04-29T10:16:18.869Z,22.92
2023-04-29T10:18:53.658Z,16.52
2023-04-29T10:21:25.967Z,52.67
2023-04-29T10:23:57.625Z,24.90
2023-04-29T10:26:29.390Z,31.50
2023-04-29T10:29:00.092Z,60.42
2023-04-29T10:31:30.236Z,15.75
2023-04-29T10:34:01.728Z,14.68
2023-04-29T10:36:31.575Z,12.88
2023-04-29T10:39:03.714Z,25.20
2023-04-29T10:41:36.240Z,19.35
2023-04-29T10:44:05.427Z,11.60
2023-04-29T10:46:33.789Z,11.50
2023-04-29T10:49:05.067Z,15.77
2023-04-29T10:51:35.520Z,13.82
2023-04-29T10:54:07.877Z,10.35
2023-04-29T10:56:49.350Z,11.57
2023-04-29T10:59:21.454Z,11.18
2023-04-29T11:01:51.294Z,16.73
2023-04-29T11:04:22.614Z,18.73
2023-04-29T11:06:54.960Z,13.20
2023-04-29T11:09:27.216Z,14.68
2023-04-29T11:12:04.202Z,7.05
2023-04-29T11:14:37.944Z,9.63
2023-04-29T11:17:09.402Z,9.95
2023-04-29T11:19:43.041Z,10.55
2023-04-29T11:22:14.535Z,10.63
2023-04-29T11:24:55.441Z,9.13
2023-04-29T11:27:26.422Z,8.35
2023-04-29T11:30:19.586Z,25.30
2023-04-29T11:32:50.507Z,12.98
2023-04-29T11:35:20.557Z,9.60
2023-04-29T11:37:49.564Z,11.57
2023-04-29T11:40:18.108Z,9.23
2023-04-29T11:42:47.446Z,10.00
2023-04-29T11:45:18.109Z,8.93
2023-04-29T11:47:47.333Z,12.20
2023-04-29T11:50:19.256Z,9.25
2023-04-29T11:52:50.041Z,11.45
2023-04-29T11:55:19.545Z,7.63
2023-04-29T11:57:51.210Z,9.77
2023-04-29T12:00:20.045Z,8.73
2023-04-29T12:02:48.831Z,8.55
2023-04-29T12:05:19.371Z,8.65
2023-04-29T12:07:51.141Z,12.73
2023-04-29T12:10:21.126Z,8.38
2023-04-29T12:12:51.590Z,10.40
2023-04-29T12:15:20.683Z,8.38
2023-04-29T12:17:49.274Z,9.02
2023-04-29T12:20:17.971Z,13.10
2023-04-29T12:22:46.478Z,11.73
2023-04-29T12:25:18.340Z,10.10
2023-04-29T12:27:46.702Z,11.45
2023-04-29T12:30:16.092Z,9.25
2023-04-29T12:32:44.476Z,12.35
2023-04-29T12:35:19.837Z,11.30
2023-04-29T12:37:51.845Z,11.65
2023-04-29T12:40:21.832Z,8.60
2023-04-29T12:42:50.273Z,7.22
2023-04-29T12:45:42.915Z,12.23
2023-04-29T12:48:22.195Z,16.92
2023-04-29T12:50:58.536Z,8.07
2023-04-29T12:53:27.443Z,12.23
2023-04-29T12:55:57.871Z,8.55
2023-04-29T12:58:26.136Z,8.70
2023-04-29T13:00:55.023Z,9.20
2023-04-29T13:03:24.010Z,11.27
2023-04-29T13:05:54.762Z,7.88
2023-04-29T13:08:23.346Z,10.32
2023-04-29T13:10:52.108Z,8.20
2023-04-29T13:13:21.947Z,8.95
2023-04-29T13:15:50.396Z,6.25
2023-04-29T13:18:18.707Z,16.70
2023-04-29T13:23:16.633Z,14.02
2023-04-29T13:25:45.408Z,10.75
2023-04-29T13:28:13.738Z,6.68
2023-04-29T13:30:43.658Z,9.55
2023-04-29T13:33:13.582Z,9.40
2023-04-29T13:35:42.509Z,6.65
2023-04-29T13:38:10.737Z,9.82
2023-04-29T13:40:44.768Z,7.82
2023-04-29T13:43:20.956Z,9.98
2023-04-29T13:45:55.828Z,9.90
2023-04-29T13:49:00.669Z,7.93
2023-04-29T13:54:41.297Z,5.95
2023-04-29T13:59:39.369Z,7.32
2023-04-29T14:02:23.084Z,9.23
2023-04-29T14:04:43.576Z,11.77
2023-04-29T14:07:12.208Z,9.52
2023-04-29T14:09:41.070Z,11.43
2023-04-29T14:12:09.760Z,9.43
2023-04-29T14:14:38.034Z,7.72
2023-04-29T14:17:08.198Z,11.30
2023-04-29T14:19:36.589Z,7.85
2023-04-29T14:22:05.255Z,9.10
2023-04-29T14:24:33.642Z,8.63
2023-04-29T14:27:02.347Z,10.70
2023-04-29T14:29:30.919Z,6.82
2023-04-29T14:31:59.447Z,13.57
2023-04-29T14:34:29.013Z,5.97
2023-04-29T14:36:59.190Z,8.57
2023-04-29T14:39:27.907Z,8.35
2023-04-29T14:41:56.503Z,5.53
2023-04-29T14:44:24.885Z,14.90
2023-04-29T14:46:53.722Z,14.07
2023-04-29T14:49:22.224Z,15.07
2023-04-29T14:51:52.147Z,6.15
2023-04-29T14:54:20.578Z,12.73
2023-04-29T14:56:49.470Z,8.85
2023-04-29T14:59:17.713Z,10.05
2023-04-29T15:01:46.451Z,9.30
2023-04-29T15:04:14.882Z,15.15
2023-04-29T15:06:43.918Z,12.00
2023-04-29T15:09:13.778Z,10.75
2023-04-29T15:11:42.462Z,9.88
2023-04-29T15:14:10.695Z,6.03
2023-04-29T15:16:39.491Z,6.38
2023-04-29T15:19:07.942Z,7.03
2023-04-29T15:21:36.839Z,12.98
2023-04-29T15:24:05.205Z,10.10
2023-04-29T15:26:35.699Z,7.53
2023-04-29T15:29:04.244Z,10.65
2023-04-29T15:31:32.834Z,6.78
2023-04-29T15:34:01.264Z,12.30
2023-04-29T15:36:32.149Z,13.13
2023-04-29T15:39:00.627Z,5.18
2023-04-29T15:41:29.166Z,14.48
2023-04-29T15:43:59.242Z,9.32
2023-04-29T15:46:28.357Z,6.75
2023-04-29T15:48:56.642Z,7.22
2023-04-29T15:51:25.283Z,8.70
2023-04-29T15:53:53.550Z,6.35
2023-04-29T15:56:22.089Z,8.43
2023-04-29T15:58:50.424Z,9.40
2023-04-29T16:01:20.337Z,18.52
2023-04-29T16:03:48.906Z,8.55
2023-04-29T16:06:17.921Z,9.45
2023-04-29T16:08:47.121Z,5.65
2023-04-29T16:11:15.978Z,10.02
2023-04-29T16:13:44.307Z,8.35
2023-04-29T16:16:12.913Z,7.53
2023-04-29T16:18:42.823Z,8.02
2023-04-29T16:21:12.890Z,11.05
2023-04-29T16:23:41.435Z,9.48
2023-04-29T16:26:10.039Z,6.03
2023-04-29T16:28:38.287Z,6.55
2023-04-29T16:31:06.851Z,6.57
2023-04-29T16:33:35.252Z,6.22
2023-04-29T16:36:05.671Z,12.38
2023-04-29T16:38:36.512Z,13.35
2023-04-29T16:41:06.577Z,7.47
2023-04-29T16:43:35.345Z,13.05
2023-04-29T16:46:04.711Z,9.38
2023-04-29T16:48:33.710Z,7.38
2023-04-29T16:51:03.035Z,6.95
2023-04-29T16:53:32.722Z,8.98
2023-04-29T16:56:02.335Z,7.45
2023-04-29T16:58:30.602Z,8.15
2023-04-29T17:00:59.431Z,9.10
2023-04-29T17:03:28.125Z,7.82
2023-04-29T17:05:56.893Z,7.55
2023-04-29T17:08:25.809Z,13.35
2023-04-29T17:10:55.911Z,12.48
2023-04-29T17:13:24.301Z,8.30
2023-04-29T17:15:53.161Z,10.02
2023-04-29T17:18:21.845Z,12.93
2023-04-29T17:20:51.106Z,13.15
2023-04-29T17:23:19.563Z,7.82
2023-04-29T17:25:48.080Z,16.83
2023-04-29T17:28:17.696Z,13.90
2023-04-29T17:30:46.551Z,12.40
2023-04-29T17:33:14.816Z,17.33
2023-04-29T17:35:44.266Z,12.07
2023-04-29T17:38:12.851Z,23.80
2023-04-29T17:40:41.884Z,17.15
2023-04-29T17:43:10.145Z,20.67
2023-04-29T17:45:42.468Z,17.88
2023-04-29T17:48:10.758Z,24.02
2023-04-29T17:50:39.568Z,17.83
2023-04-29T17:53:07.850Z,17.13
2023-04-29T17:55:39.488Z,23.77
2023-04-29T17:58:07.900Z,25.83
2023-04-29T18:00:36.485Z,24.73
2023-04-29T18:03:06.599Z,18.67
2023-04-29T18:05:35.170Z,17.85
2023-04-29T18:08:03.369Z,19.77
2023-04-29T18:10:31.876Z,21.45
2023-04-29T18:13:00.035Z,21.48
2023-04-29T18:15:28.595Z,19.98
2023-04-29T18:17:56.970Z,19.63
2023-04-29T18:20:27.217Z,21.63
2023-04-29T18:22:55.562Z,24.73
2023-04-29T18:25:24.537Z,26.65
2023-04-29T18:27:57.070Z,24.67
2023-04-29T18:30:32.250Z,27.00
2023-04-29T18:33:00.773Z,20.60
2023-04-29T18:35:30.735Z,26.08
2023-04-29T18:37:59.035Z,43.33
2023-04-29T18:40:27.689Z,37.35
2023-04-29T18:42:55.931Z,29.08
2023-04-29T18:45:24.618Z,37.20
2023-04-29T18:47:52.983Z,33.10
2023-04-29T18:50:21.539Z,40.30
2023-04-29T18:52:51.182Z,34.50
2023-04-29T18:55:19.919Z,37.92
2023-04-29T18:57:48.381Z,31.48
2023-04-29T19:00:17.322Z,36.60
2023-04-29T19:02:45.630Z,29.40
2023-04-29T19:05:14.348Z,29.38
2023-04-29T19:07:43.308Z,23.15
2023-04-29T19:10:13.564Z,25.08
2023-04-29T19:12:42.095Z,30.35
2023-04-29T19:15:11.748Z,20.38
2023-04-29T19:17:40.139Z,27.75
2023-04-29T19:20:10.112Z,26.85
2023-04-29T19:22:38.688Z,20.92
2023-04-29T19:25:07.985Z,26.67
2023-04-29T19:27:40.061Z,22.20
2023-04-29T19:30:09.668Z,24.60
2023-04-29T19:32:37.995Z,18.70
2023-04-29T19:35:07.473Z,23.02
2023-04-29T19:37:35.932Z,21.65
2023-04-29T19:40:04.865Z,24.58
2023-04-29T19:42:33.458Z,19.23
2023-04-29T19:45:05.150Z,22.70
2023-04-29T19:47:33.416Z,23.27
2023-04-29T19:50:02.094Z,27.25
2023-04-29T19:52:30.686Z,24.38
2023-04-29T19:54:59.248Z,22.08
2023-04-29T19:57:28.457Z,23.05
2023-04-29T19:59:57.307Z,21.48
2023-04-29T20:02:27.079Z,17.35
2023-04-29T20:04:56.054Z,29.55
2023-04-29T20:07:24.265Z,19.63
2023-04-29T20:09:52.837Z,19.98
2023-04-29T20:12:21.264Z,21.05
2023-04-29T20:14:49.808Z,19.42
2023-04-29T20:17:18.377Z,19.85
2023-04-29T20:19:48.217Z,16.73
2023-04-29T20:22:16.464Z,15.15
2023-04-29T20:24:45.005Z,21.85
2023-04-29T20:27:13.233Z,23.67
2023-04-29T20:29:41.917Z,18.75
2023-04-29T20:32:10.754Z,14.45
2023-04-29T20:34:39.328Z,14.40
2023-04-29T20:37:09.734Z,23.73
2023-04-29T20:39:39.167Z,16.30
2023-04-29T20:42:07.889Z,17.25
2023-04-29T20:44:36.836Z,17.55
2023-04-29T20:47:05.529Z,21.85
2023-04-29T20:49:34.221Z,17.33
2023-04-29T20:52:02.492Z,14.30
2023-04-29T20:54:32.559Z,20.80
2023-04-29T20:57:00.896Z,18.75
2023-04-29T20:59:29.320Z,16.33
2023-04-29T21:01:57.560Z,23.38
2023-04-29T21:04:26.320Z,17.60
2023-04-29T21:06:54.649Z,17.58
2023-04-29T21:09:23.231Z,13.55
2023-04-29T21:11:52.979Z,13.98
2023-04-29T21:14:21.557Z,23.30
2023-04-29T21:16:50.426Z,14.68
2023-04-29T21:19:19.118Z,19.67
2023-04-29T21:21:47.547Z,17.98
2023-04-29T21:24:16.255Z,12.05
2023-04-29T21:26:45.319Z,11.80
2023-04-29T21:29:15.176Z,12.20
2023-04-29T21:31:43.492Z,12.07
2023-04-29T21:34:12.336Z,16.25
2023-04-29T21:36:40.632Z,16.30
2023-04-29T21:39:09.968Z,13.93
2023-04-29T21:41:39.946Z,9.65
2023-04-29T21:44:08.993Z,11.63
2023-04-29T21:46:38.769Z,15.25
2023-04-29T21:49:07.545Z,12.52
2023-04-29T21:51:36.148Z,13.90
2023-04-29T21:54:08.368Z,11.50
2023-04-29T21:56:36.815Z,9.82
2023-04-29T21:59:05.436Z,9.65
2023-04-29T22:01:49.316Z,13.25
2023-04-29T22:04:19.752Z,14.23
2023-04-29T22:06:48.090Z,11.93
2023-04-29T22:09:16.817Z,12.43
2023-04-29T22:11:45.009Z,15.57
2023-04-29T22:14:13.730Z,12.82
2023-04-29T22:16:42.202Z,9.68
2023-04-29T22:19:10.788Z,10.88
2023-04-29T22:21:42.934Z,8.55
2023-04-29T22:24:11.492Z,12.18
2023-04-29T22:26:39.715Z,8.80
2023-04-29T22:29:08.173Z,10.32
2023-04-29T22:31:36.461Z,11.23
2023-04-29T22:34:05.054Z,9.48
2023-04-29T22:36:33.298Z,9.18
2023-04-29T22:39:03.359Z,12.10
2023-04-29T22:41:31.850Z,13.90
2023-04-29T22:44:00.327Z,13.25
2023-04-29T22:46:28.612Z,9.00
2023-04-29T22:48:57.250Z,9.65
2023-04-29T22:51:25.569Z,18.02
2023-04-29T22:53:54.110Z,8.10
2023-04-29T22:56:24.630Z,14.68
2023-04-29T22:58:53.277Z,6.93
2023-04-29T23:01:21.602Z,9.95
2023-04-29T23:03:50.127Z,13.43
2023-04-29T23:06:35.305Z,8.25
2023-04-29T23:09:03.839Z,8.77
2023-04-29T23:11:33.819Z,14.07
2023-04-29T23:14:02.639Z,8.00
2023-04-29T23:16:31.015Z,9.70
2023-04-29T23:18:59.535Z,14.45
2023-04-29T23:21:27.892Z,9.48
2023-04-29T23:23:56.474Z,13.27
2023-04-29T23:26:24.711Z,10.93
2023-04-29T23:28:54.555Z,9.68
2023-04-29T23:31:22.957Z,8.27
2023-04-29T23:33:51.620Z,11.13
2023-04-29T23:36:19.910Z,16.20
2023-04-29T23:38:48.582Z,18.95
2023-04-29T23:41:16.748Z,11.60
2023-04-29T23:43:45.228Z,8.98
2023-04-29T23:46:14.944Z,9.00
2023-04-29T23:48:43.449Z,8.32
2023-04-29T23:51:11.728Z,13.20
2023-04-29T23:53:40.491Z,11.15
2023-04-29T23:56:09.116Z,16.70
2023-04-29T23:58:37.566Z,10.52
